Terminal Aerodrome Forecast
Issued by NWS Blacksburg, VA

Current Version | Previous Version | Graphics & Text | Print | Product List | Glossary On
Versions: 1 2 3 4 5 6 7 8 9 10 11 12 13 14 15 16 17 18 19 20 21 22 23 24 25 26 27 28 29 30 31 32 33 34 35 36 37 38 39 40
000
FTUS41 KRNK 280522
TAFBLF
TAF
KBLF 280522Z 2806/2906 30010G17KT 5SM -SHSN BKN011 OVC018
      TEMPO 2806/2808 2SM -SHSN SCT007 OVC011
     FM281500 28010G18KT P6SM BKN013 OVC023
     FM281800 27008KT P6SM SCT025 BKN080 OVC250=

USA.gov is the U.S. government's official web portal to all federal, state and local government web resources and services.